Time;durP1;ratioP1;P1;durP2;ratioP2;P2;SDS_P1;SDS_P2;PMS_P1;PMS_P2;Temp;Humidity;BMP_temperature;BMP_pressure;BME280_temperature;BME280_humidity;BME280_pressure;Samples;Min_cycle;Max_cycle;Signal;HPM_P1;HPM_P2
2022/12/28 00:02:10;;;;;;;;;;;;;;;20.18;53.43;101596.41;5019069;28;4150;-72
2022/12/28 00:04:37;;;;;;;;;;;;;;;20.17;53.41;101586.28;5019965;28;4178;-71
2022/12/28 00:07:03;;;;;;;;;;;;;;;20.16;53.32;101582.69;5021331;28;4150;-72
2022/12/28 00:09:29;;;;;;;;;;;;;;;20.16;53.33;101584.78;5022740;28;4169;-71
2022/12/28 00:11:56;;;;;;;;;;;;;;;20.15;53.27;101575.41;5021334;28;5221;-71
2022/12/28 00:14:22;;;;;;;;;;;;;;;20.15;53.34;101574.66;5020980;28;4185;-71
2022/12/28 00:16:48;;;;;;;;;;;;;;;20.14;53.24;101578.94;5021760;28;4117;-71
2022/12/28 00:19:15;;;;;;;;;;;;;;;20.13;53.35;101574.56;5021857;28;4026;-71
2022/12/28 00:21:42;;;;;;;;;;;;;;;20.14;53.12;101561.69;5021649;28;4120;-71
2022/12/28 00:24:10;;;;;;;;;;;;;;;20.13;53.17;101554.41;5017979;28;5200;-71
2022/12/28 00:26:37;;;;;;;;;;;;;;;20.13;53.18;101548.66;5005737;28;4094;-71
2022/12/28 00:29:03;;;;;;;;;;;;;;;20.13;53.13;101565.91;5014434;28;4195;-70
2022/12/28 00:31:31;;;;;;;;;;;;;;;20.13;53.07;101586.06;5021706;28;4179;-70
2022/12/28 00:33:58;;;;;;;;;;;;;;;20.14;52.83;101581.81;4991961;28;4194;-71
2022/12/28 00:36:24;;;;;;;;;;;;;;;20.13;53.05;101572.41;5019501;28;4159;-71
2022/12/28 00:39:10;;;;;;;;;;;;;;;20.11;53.06;101571.56;5019677;28;4443;-71
2022/12/28 00:41:37;;;;;;;;;;;;;;;20.09;53.27;101563.56;5019330;28;4037;-70
2022/12/28 00:44:03;;;;;;;;;;;;;;;20.09;53.30;101560.69;5003788;28;4198;-71
2022/12/28 00:46:30;;;;;;;;;;;;;;;20.08;53.26;101559.94;5021423;28;3986;-72
2022/12/28 00:48:56;;;;;;;;;;;;;;;20.08;53.24;101551.31;5022093;28;5296;-73
2022/12/28 00:51:22;;;;;;;;;;;;;;;20.06;53.23;101556.94;5000792;28;4211;-72
2022/12/28 00:53:49;;;;;;;;;;;;;;;20.07;53.15;101558.44;5002028;28;4196;-71
2022/12/28 00:56:16;;;;;;;;;;;;;;;20.05;53.19;101552.56;5018694;28;3937;-71
2022/12/28 00:58:42;;;;;;;;;;;;;;;20.06;53.10;101542.56;5022401;28;4184;-72
2022/12/28 01:01:10;;;;;;;;;;;;;;;20.05;53.06;101549.69;5018166;28;4147;-71
2022/12/28 01:03:36;;;;;;;;;;;;;;;20.06;52.99;101542.56;4995316;28;4044;-71
2022/12/28 01:06:06;;;;;;;;;;;;;;;20.07;52.81;101546.94;5020203;28;4122;-71
2022/12/28 01:08:35;;;;;;;;;;;;;;;20.10;52.73;101533.44;5019706;28;4175;-72
2022/12/28 01:11:07;;;;;;;;;;;;;;;20.12;53.00;101542.19;5018576;28;4360;-72
2022/12/28 01:13:34;;;;;;;;;;;;;;;20.12;52.90;101536.44;5021079;28;3942;-72
2022/12/28 01:16:08;;;;;;;;;;;;;;;20.15;53.05;101534.41;4998023;28;4256;-72
2022/12/28 01:18:34;;;;;;;;;;;;;;;20.15;53.16;101534.41;5021002;28;4479;-71
2022/12/28 01:21:06;;;;;;;;;;;;;;;20.15;53.41;101529.41;5019747;28;4306;-71
2022/12/28 01:23:33;;;;;;;;;;;;;;;20.16;53.41;101525.16;5019901;28;4169;-71
2022/12/28 01:26:02;;;;;;;;;;;;;;;20.18;53.49;101521.66;5016123;28;4551;-71
2022/12/28 01:28:29;;;;;;;;;;;;;;;20.17;53.59;101525.91;5017243;28;4241;-72
2022/12/28 01:30:55;;;;;;;;;;;;;;;20.17;53.44;101514.41;5020896;28;4059;-72
2022/12/28 01:33:21;;;;;;;;;;;;;;;20.16;53.50;101516.53;5014835;28;4139;-73
2022/12/28 01:35:47;;;;;;;;;;;;;;;20.16;53.38;101512.91;5018430;28;4401;-71
2022/12/28 01:38:14;;;;;;;;;;;;;;;20.15;53.40;101512.16;5023107;28;4134;-70
2022/12/28 01:40:41;;;;;;;;;;;;;;;20.14;53.29;101499.16;5017438;28;5314;-72
2022/12/28 01:43:12;;;;;;;;;;;;;;;20.14;53.36;101502.03;5000936;28;4111;-71
2022/12/28 01:45:38;;;;;;;;;;;;;;;20.14;53.37;101498.44;5005660;28;4202;-71
2022/12/28 01:48:06;;;;;;;;;;;;;;;20.13;53.38;101483.28;5020653;28;5181;-71
2022/12/28 01:50:32;;;;;;;;;;;;;;;20.13;53.44;101482.53;5001406;28;4062;-71
2022/12/28 01:52:59;;;;;;;;;;;;;;;20.13;53.34;101476.78;5018162;28;4142;-71
2022/12/28 01:55:35;;;;;;;;;;;;;;;20.12;53.29;101472.44;5019412;28;4189;-71
2022/12/28 01:58:06;;;;;;;;;;;;;;;20.12;53.17;101472.44;4987048;28;4098;-71
2022/12/28 02:00:32;;;;;;;;;;;;;;;20.09;53.15;101460.81;5004463;28;4177;-71
2022/12/28 02:18:41;;;;;;;;;;;;;;;20.13;53.53;101416.41;4981499;28;4911;-72
2022/12/28 02:21:17;;;;;;;;;;;;;;;20.11;53.64;101414.16;4990427;28;4211;-71
2022/12/28 02:24:00;;;;;;;;;;;;;;;20.08;53.66;101416.16;4989683;28;4210;-71
2022/12/28 02:26:43;;;;;;;;;;;;;;;20.07;53.61;101408.94;5000064;28;4136;-71
2022/12/28 02:29:15;;;;;;;;;;;;;;;20.06;53.49;101400.94;4989205;28;4137;-71
2022/12/28 02:31:43;;;;;;;;;;;;;;;20.05;53.28;101390.84;4997505;28;5066;-71
2022/12/28 02:34:22;;;;;;;;;;;;;;;20.03;53.46;101382.09;4996119;28;4148;-71
2022/12/28 02:36:51;;;;;;;;;;;;;;;20.01;53.36;101371.22;5001147;28;5149;-71
2022/12/28 02:39:19;;;;;;;;;;;;;;;20.01;53.37;101371.22;4990479;28;4121;-71
2022/12/28 02:41:46;;;;;;;;;;;;;;;20.01;53.22;101376.22;4997490;28;4126;-70
2022/12/28 02:50:04;;;;;;;;;;;;;;;20.00;53.33;101366.84;4995142;28;4175;-71
2022/12/28 02:52:53;;;;;;;;;;;;;;;19.98;53.18;101354.50;4999265;28;5243;-71
2022/12/28 02:58:17;;;;;;;;;;;;;;;19.96;53.02;101340.75;4990917;28;4505;-71
2022/12/28 03:00:50;;;;;;;;;;;;;;;19.96;53.00;101335.00;4985724;28;5547;-71
2022/12/28 03:03:22;;;;;;;;;;;;;;;19.97;52.92;101321.38;4994280;28;3957;-70
2022/12/28 03:08:47;;;;;;;;;;;;;;;20.01;52.57;101324.47;4999614;28;4393;-71
2022/12/28 03:11:15;;;;;;;;;;;;;;;20.03;52.72;101304.47;5004635;28;5452;-71
2022/12/28 03:13:45;;;;;;;;;;;;;;;20.04;52.92;101306.72;4996157;28;4023;-70
2022/12/28 03:16:18;;;;;;;;;;;;;;;20.06;52.95;101306.06;5007858;28;4096;-71
2022/12/28 03:32:40;;;;;;;;;;;;;;;20.06;53.02;101285.94;5003039;28;4134;-71
2022/12/28 03:35:07;;;;;;;;;;;;;;;20.06;53.15;101263.69;4995951;28;5245;-71
2022/12/28 03:37:40;;;;;;;;;;;;;;;20.06;53.21;101246.44;5000829;28;4412;-71
2022/12/28 03:40:21;;;;;;;;;;;;;;;20.06;52.99;101257.94;4983834;28;6162;-71
2022/12/28 03:45:35;;;;;;;;;;;;;;;20.09;53.03;101238.69;4992429;28;4103;-70
2022/12/28 03:48:14;;;;;;;;;;;;;;;20.10;53.31;101243.03;5000347;28;4531;-71
2022/12/28 03:50:41;;;;;;;;;;;;;;;20.09;53.43;101236.56;4990924;28;5363;-71
2022/12/28 03:53:07;;;;;;;;;;;;;;;20.11;53.52;101240.91;5019973;28;4127;-71
2022/12/28 03:55:39;;;;;;;;;;;;;;;20.13;53.38;101226.63;4979864;28;4197;-71
2022/12/28 03:58:06;;;;;;;;;;;;;;;20.13;53.18;101232.41;5006600;28;4152;-71
2022/12/28 04:00:32;;;;;;;;;;;;;;;20.14;53.00;101228.16;5021431;28;4163;-71
2022/12/28 04:02:59;;;;;;;;;;;;;;;20.13;53.20;101209.38;5004161;28;4191;-71
2022/12/28 04:05:26;;;;;;;;;;;;;;;20.14;53.14;101223.13;5006496;28;4263;-71
2022/12/28 04:07:52;;;;;;;;;;;;;;;20.13;53.15;101206.50;4987933;28;4201;-71
2022/12/28 04:10:19;;;;;;;;;;;;;;;20.15;53.07;101206.63;4999042;28;5395;-71
2022/12/28 04:12:45;;;;;;;;;;;;;;;20.14;53.23;101205.16;5002239;28;4142;-71
2022/12/28 04:15:25;;;;;;;;;;;;;;;20.13;53.03;101204.38;4995380;28;4123;-71
2022/12/28 04:17:51;;;;;;;;;;;;;;;20.16;53.25;101196.59;5003398;28;4124;-71
2022/12/28 04:20:18;;;;;;;;;;;;;;;20.16;53.12;101185.88;4995013;28;4127;-71
2022/12/28 04:22:44;;;;;;;;;;;;;;;20.18;53.13;101188.09;4997934;28;3955;-71
2022/12/28 04:25:10;;;;;;;;;;;;;;;20.18;53.25;101183.09;4992327;28;4034;-71
2022/12/28 04:27:38;;;;;;;;;;;;;;;20.19;53.10;101183.84;5000087;28;4156;-71
2022/12/28 04:30:12;;;;;;;;;;;;;;;20.20;52.97;101173.81;5000827;28;4051;-71
2022/12/28 04:32:39;;;;;;;;;;;;;;;20.19;53.14;101172.34;5007625;28;4178;-71
2022/12/28 04:35:06;;;;;;;;;;;;;;;20.19;52.98;101169.47;5007075;28;4463;-71
2022/12/28 04:37:41;;;;;;;;;;;;;;;20.17;52.99;101160.72;4997128;28;4276;-71
2022/12/28 04:40:08;;;;;;;;;;;;;;;20.18;52.91;101159.34;5023249;28;4218;-71
2022/12/28 04:42:34;;;;;;;;;;;;;;;20.18;52.91;101156.47;5023780;28;4059;-71
2022/12/28 04:45:00;;;;;;;;;;;;;;;20.18;53.12;101162.22;5024475;28;4936;-70
2022/12/28 04:47:27;;;;;;;;;;;;;;;20.18;53.07;101157.22;5026280;28;4151;-71
2022/12/28 04:49:53;;;;;;;;;;;;;;;20.19;52.98;101155.81;5023206;28;4197;-71
2022/12/28 04:52:21;;;;;;;;;;;;;;;20.19;52.90;101155.81;5020238;28;5148;-71
2022/12/28 04:54:47;;;;;;;;;;;;;;;20.21;52.95;101153.06;5023596;28;4148;-71
2022/12/28 04:57:13;;;;;;;;;;;;;;;20.21;52.94;101153.06;5021539;28;4112;-71
2022/12/28 04:59:40;;;;;;;;;;;;;;;20.22;53.09;101159.56;5022139;28;5229;-71
2022/12/28 05:02:06;;;;;;;;;;;;;;;20.21;52.97;101153.06;5021345;28;4219;-72
2022/12/28 05:04:33;;;;;;;;;;;;;;;20.20;53.02;101157.34;5021656;28;5670;-71
2022/12/28 05:06:59;;;;;;;;;;;;;;;20.21;52.95;101158.81;5020868;28;5141;-71
2022/12/28 05:09:25;;;;;;;;;;;;;;;20.21;52.87;101155.19;5022173;28;4074;-71
2022/12/28 05:11:52;;;;;;;;;;;;;;;20.21;52.85;101149.44;5018344;28;5231;-71
2022/12/28 05:14:18;;;;;;;;;;;;;;;20.21;53.02;101146.56;5020477;28;5225;-72
2022/12/28 05:16:44;;;;;;;;;;;;;;;20.23;52.87;101143.81;5022485;28;4114;-71
2022/12/28 05:19:11;;;;;;;;;;;;;;;20.23;52.95;101143.81;5022200;28;3950;-71
2022/12/28 05:21:38;;;;;;;;;;;;;;;20.24;53.04;101156.78;5021368;28;4169;-71
2022/12/28 05:24:04;;;;;;;;;;;;;;;20.23;52.77;101138.78;5020511;28;4198;-71
2022/12/28 05:26:31;;;;;;;;;;;;;;;20.24;52.82;101137.38;5019356;28;4100;-71
2022/12/28 05:28:57;;;;;;;;;;;;;;;20.25;53.04;101141.03;5017295;28;4187;-71
2022/12/28 05:31:24;;;;;;;;;;;;;;;20.24;52.85;101133.78;5020147;28;4203;-71
2022/12/28 05:33:50;;;;;;;;;;;;;;;20.23;52.62;101138.06;5021628;28;4196;-72
2022/12/28 05:36:18;;;;;;;;;;;;;;;20.23;52.80;101123.69;5021287;28;4450;-72
2022/12/28 05:38:44;;;;;;;;;;;;;;;20.22;52.85;101120.03;5019017;28;4527;-71
2022/12/28 05:41:14;;;;;;;;;;;;;;;20.22;53.04;101107.78;5020727;28;3988;-71
2022/12/28 05:43:40;;;;;;;;;;;;;;;20.24;52.88;101116.53;5018077;28;4134;-71
2022/12/28 05:46:08;;;;;;;;;;;;;;;20.23;52.84;101101.41;4998108;28;4180;-71
2022/12/28 05:48:34;;;;;;;;;;;;;;;20.25;52.80;101103.66;5016242;28;4098;-71
2022/12/28 05:51:01;;;;;;;;;;;;;;;20.25;52.68;101107.25;4997189;28;4229;-71
2022/12/28 05:53:29;;;;;;;;;;;;;;;20.27;52.73;101097.97;5020290;28;4103;-71
2022/12/28 05:56:04;;;;;;;;;;;;;;;20.26;52.84;101096.50;5021699;28;4159;-71
2022/12/28 05:58:35;;;;;;;;;;;;;;;20.27;52.73;101089.34;5021190;28;4157;-71
2022/12/28 06:01:03;;;;;;;;;;;;;;;20.25;52.79;101077.78;5018925;28;4201;-72
2022/12/28 06:03:29;;;;;;;;;;;;;;;20.26;52.71;101068.47;5020429;28;4002;-71
2022/12/28 06:05:56;;;;;;;;;;;;;;;20.26;52.83;101076.38;5018579;28;4108;-71
2022/12/28 06:08:22;;;;;;;;;;;;;;;20.26;52.60;101076.38;5012270;28;4289;-71
2022/12/28 06:10:49;;;;;;;;;;;;;;;20.25;52.60;101057.63;5020288;28;3900;-71
2022/12/28 06:13:15;;;;;;;;;;;;;;;20.25;52.75;101063.41;5018123;28;3981;-71
2022/12/28 06:15:41;;;;;;;;;;;;;;;20.26;52.66;101053.38;5021261;28;4352;-71
2022/12/28 06:18:08;;;;;;;;;;;;;;;20.27;52.59;101051.97;5021914;28;4123;-71
2022/12/28 06:20:34;;;;;;;;;;;;;;;20.26;52.42;101050.50;5020216;28;3954;-71
2022/12/28 06:23:00;;;;;;;;;;;;;;;20.28;52.60;101048.47;5020239;28;4158;-71
2022/12/28 06:25:27;;;;;;;;;;;;;;;20.27;52.39;101038.34;5018361;28;4202;-71
2022/12/28 06:27:53;;;;;;;;;;;;;;;20.28;52.41;101036.22;5022905;28;4041;-70
2022/12/28 06:30:19;;;;;;;;;;;;;;;20.27;52.82;101041.22;5019485;28;5086;-71
2022/12/28 06:32:46;;;;;;;;;;;;;;;20.27;52.73;101035.47;5021641;28;4144;-71
2022/12/28 06:35:12;;;;;;;;;;;;;;;20.28;52.79;101027.59;5021529;28;4105;-71
2022/12/28 06:37:38;;;;;;;;;;;;;;;20.27;52.65;101040.47;5024273;28;4233;-71
2022/12/28 06:40:05;;;;;;;;;;;;;;;20.27;52.39;101035.47;5022073;28;5369;-71
2022/12/28 06:42:31;;;;;;;;;;;;;;;20.28;52.60;101024.72;5026697;28;4284;-71
2022/12/28 06:44:58;;;;;;;;;;;;;;;20.28;52.58;101024.72;5025933;28;5204;-71
2022/12/28 06:47:24;;;;;;;;;;;;;;;20.28;52.60;101018.97;5025367;28;4220;-71
2022/12/28 06:49:50;;;;;;;;;;;;;;;20.29;52.72;101011.81;5024758;28;4169;-71
2022/12/28 06:52:17;;;;;;;;;;;;;;;20.30;52.51;101010.44;5022538;28;3994;-71
2022/12/28 06:54:43;;;;;;;;;;;;;;;20.30;52.54;101005.44;5021439;28;4195;-71
2022/12/28 06:57:09;;;;;;;;;;;;;;;20.29;52.53;101003.94;5023908;28;5520;-71
2022/12/28 06:59:36;;;;;;;;;;;;;;;20.29;52.54;100991.69;5023941;28;4129;-70
2022/12/28 07:02:02;;;;;;;;;;;;;;;20.30;52.56;100993.19;5020968;28;5565;-71
2022/12/28 07:04:28;;;;;;;;;;;;;;;20.29;52.68;100991.69;5025575;28;4165;-71
2022/12/28 07:06:58;;;;;;;;;;;;;;;20.30;52.38;100987.44;5019472;28;4282;-70
2022/12/28 07:09:24;;;;;;;;;;;;;;;20.29;52.31;100980.19;5020586;28;4417;-70
2022/12/28 07:11:51;;;;;;;;;;;;;;;20.29;52.50;100974.44;5026824;28;4034;-70
2022/12/28 07:14:17;;;;;;;;;;;;;;;20.30;52.33;100981.69;5023401;28;4151;-70
2022/12/28 07:16:44;;;;;;;;;;;;;;;20.30;52.30;100981.69;5025145;28;4254;-70
2022/12/28 07:19:10;;;;;;;;;;;;;;;20.30;52.29;100965.16;5021579;28;4182;-70
2022/12/28 07:21:37;;;;;;;;;;;;;;;20.31;52.51;100977.41;5023991;28;4339;-70
2022/12/28 07:24:03;;;;;;;;;;;;;;;20.32;52.54;100973.16;5023794;28;4136;-70
2022/12/28 07:26:30;;;;;;;;;;;;;;;20.31;52.62;100971.66;5020716;28;5389;-71
2022/12/28 07:28:57;;;;;;;;;;;;;;;20.32;52.55;100966.63;5020815;28;4177;-71
2022/12/28 07:31:34;;;;;;;;;;;;;;;20.31;52.45;100960.16;5007210;28;4027;-70
2022/12/28 07:34:09;;;;;;;;;;;;;;;20.30;52.51;100952.94;5021707;28;4082;-71
2022/12/28 07:36:35;;;;;;;;;;;;;;;20.30;52.42;100950.03;5022592;28;4037;-70
2022/12/28 07:39:01;;;;;;;;;;;;;;;20.29;52.45;100943.56;5023071;28;3954;-73
2022/12/28 07:41:29;;;;;;;;;;;;;;;20.29;52.39;100948.53;5023761;28;4057;-72
2022/12/28 07:43:56;;;;;;;;;;;;;;;20.27;52.40;100943.47;5008443;28;4098;-73
2022/12/28 07:46:24;;;;;;;;;;;;;;;20.29;52.38;100937.81;5025217;28;4134;-71
2022/12/28 07:48:50;;;;;;;;;;;;;;;20.29;52.44;100940.69;5024907;28;4027;-72
2022/12/28 07:51:18;;;;;;;;;;;;;;;20.27;52.26;100942.69;5022051;28;4304;-73
2022/12/28 07:53:45;;;;;;;;;;;;;;;20.23;52.41;100931.00;5021315;28;3967;-72
2022/12/28 07:56:11;;;;;;;;;;;;;;;20.27;52.07;100934.06;5024597;28;4275;-72
2022/12/28 07:58:37;;;;;;;;;;;;;;;20.29;52.26;100939.91;5024562;28;5292;-72
2022/12/28 08:01:07;;;;;;;;;;;;;;;20.29;52.33;100940.69;5023850;28;4296;-71
2022/12/28 08:03:34;;;;;;;;;;;;;;;20.29;52.20;100929.19;5023166;28;4202;-73
2022/12/28 08:06:10;;;;;;;;;;;;;;;20.29;52.18;100940.69;5023255;28;4346;-72
2022/12/28 08:08:37;;;;;;;;;;;;;;;20.29;52.51;100923.44;5000192;28;4134;-72
2022/12/28 08:11:04;;;;;;;;;;;;;;;20.29;52.54;100922.66;5020835;28;4401;-72
2022/12/28 08:13:32;;;;;;;;;;;;;;;20.28;52.56;100913.31;5022221;28;4344;-72
2022/12/28 08:15:58;;;;;;;;;;;;;;;20.29;52.60;100916.91;5021744;28;4308;-72
2022/12/28 08:18:24;;;;;;;;;;;;;;;20.29;52.66;100914.03;5024162;28;3914;-72
2022/12/28 08:20:52;;;;;;;;;;;;;;;20.30;52.71;100898.28;5023410;28;4412;-72
2022/12/28 08:23:18;;;;;;;;;;;;;;;20.30;52.49;100910.53;5021578;28;5207;-72
2022/12/28 08:25:44;;;;;;;;;;;;;;;20.30;52.28;100906.91;5021807;28;5366;-72
2022/12/28 08:28:11;;;;;;;;;;;;;;;20.30;52.25;100896.16;5020913;28;5145;-72
2022/12/28 08:30:37;;;;;;;;;;;;;;;20.31;52.27;100899.75;5025523;28;4151;-72
2022/12/28 08:33:03;;;;;;;;;;;;;;;20.30;52.29;100895.41;5022724;28;4235;-72
2022/12/28 08:35:30;;;;;;;;;;;;;;;20.29;52.36;100876.66;5019446;28;3993;-72
2022/12/28 08:37:56;;;;;;;;;;;;;;;20.23;51.49;100880.00;5016552;28;5205;-73
2022/12/28 08:40:26;;;;;;;;;;;;;;;20.16;50.14;100874.59;5024277;28;4060;-71
2022/12/28 08:42:57;;;;;;;;;;;;;;;20.13;49.29;100875.88;5023144;28;4053;-72
2022/12/28 08:45:23;;;;;;;;;;;;;;;20.12;49.18;100875.16;5019487;28;4545;-72
2022/12/28 08:47:49;;;;;;;;;;;;;;;20.10;47.69;100872.19;5022865;28;3981;-71
2022/12/28 08:50:16;;;;;;;;;;;;;;;19.62;46.41;100872.00;5020778;28;3962;-66
2022/12/28 08:52:46;;;;;;;;;;;;;;;18.55;46.05;100882.25;5020044;28;4143;-71
2022/12/28 08:55:12;;;;;;;;;;;;;;;17.86;45.79;100877.03;5020561;28;5244;-73
2022/12/28 08:57:38;;;;;;;;;;;;;;;16.91;45.29;100885.09;5022993;28;5554;-68
2022/12/28 09:00:05;;;;;;;;;;;;;;;17.08;45.29;100881.09;5022759;28;4312;-69
2022/12/28 09:02:31;;;;;;;;;;;;;;;17.21;44.85;100876.13;5017988;28;4191;-68
2022/12/28 09:04:58;;;;;;;;;;;;;;;18.38;43.93;100855.56;5018914;28;4212;-62
2022/12/28 09:07:24;;;;;;;;;;;;;;;19.02;43.11;100870.41;5017070;28;4142;-64
2022/12/28 09:09:51;;;;;;;;;;;;;;;19.27;43.78;100865.94;5022210;28;4104;-64
2022/12/28 09:12:17;;;;;;;;;;;;;;;19.46;43.64;100865.47;5024859;28;4098;-64
2022/12/28 09:14:43;;;;;;;;;;;;;;;19.57;44.31;100863.84;5024760;28;4188;-64
2022/12/28 09:17:10;;;;;;;;;;;;;;;19.64;44.67;100860.63;5024596;28;5249;-64
2022/12/28 09:19:36;;;;;;;;;;;;;;;19.67;44.83;100844.97;5023341;28;4266;-64
2022/12/28 09:22:02;;;;;;;;;;;;;;;19.71;45.40;100843.72;5021690;28;4127;-63
2022/12/28 09:24:29;;;;;;;;;;;;;;;19.74;46.01;100851.03;5022287;28;4207;-64
2022/12/28 09:26:55;;;;;;;;;;;;;;;19.77;46.26;100852.63;5017136;28;4191;-60
2022/12/28 09:29:22;;;;;;;;;;;;;;;19.69;47.47;100849.38;5009722;28;4096;-61
2022/12/28 09:31:48;;;;;;;;;;;;;;;19.97;48.44;100839.22;5017406;28;4129;-62
2022/12/28 09:34:14;;;;;;;;;;;;;;;20.19;48.23;100830.19;5024295;28;4176;-62
2022/12/28 09:37:01;;;;;;;;;;;;;;;20.35;48.24;100825.19;5019665;28;4494;-64
2022/12/28 09:39:27;;;;;;;;;;;;;;;20.42;48.50;100818.31;5025796;28;4097;-65
2022/12/28 09:41:58;;;;;;;;;;;;;;;20.54;48.11;100820.25;5023026;28;5326;-65
2022/12/28 09:44:36;;;;;;;;;;;;;;;20.42;47.08;100826.19;5018282;28;4197;-63
2022/12/28 09:47:11;;;;;;;;;;;;;;;20.12;47.64;100822.66;5021725;28;4128;-64
2022/12/28 09:49:41;;;;;;;;;;;;;;;20.13;47.51;100821.28;4997785;28;4156;-62
2022/12/28 09:52:15;;;;;;;;;;;;;;;20.12;47.92;100814.06;4989532;28;4140;-64
2022/12/28 09:54:41;;;;;;;;;;;;;;;20.14;48.14;100814.88;5005871;28;5332;-64
2022/12/28 09:57:12;;;;;;;;;;;;;;;20.13;48.16;100801.16;5023415;28;5171;-65
2022/12/28 09:59:38;;;;;;;;;;;;;;;20.17;48.21;100801.34;5025804;28;4358;-64
2022/12/28 10:02:08;;;;;;;;;;;;;;;20.17;48.44;100807.81;5023873;28;4316;-64
2022/12/28 10:04:35;;;;;;;;;;;;;;;20.20;48.88;100806.53;5022691;28;4367;-64
2022/12/28 10:07:01;;;;;;;;;;;;;;;20.21;49.31;100798.66;5018656;28;4497;-64
2022/12/28 10:09:28;;;;;;;;;;;;;;;20.22;49.11;100791.50;5023341;28;5307;-64
2022/12/28 10:11:56;;;;;;;;;;;;;;;20.24;49.06;100800.22;5023556;28;4398;-64
2022/12/28 10:14:26;;;;;;;;;;;;;;;20.25;49.31;100795.97;5004358;28;4439;-64
2022/12/28 10:16:53;;;;;;;;;;;;;;;20.25;49.29;100796.72;5022833;28;4211;-64
2022/12/28 10:19:22;;;;;;;;;;;;;;;20.26;49.40;100785.94;5022261;28;4162;-65
2022/12/28 10:21:51;;;;;;;;;;;;;;;20.26;50.01;100791.69;5023759;28;4316;-64
2022/12/28 10:24:18;;;;;;;;;;;;;;;20.27;49.77;100793.16;5004853;28;4093;-65
2022/12/28 10:27:00;;;;;;;;;;;;;;;20.28;49.51;100783.16;5000685;28;4210;-64
2022/12/28 10:29:29;;;;;;;;;;;;;;;20.28;49.94;100783.16;5015051;28;4067;-66
2022/12/28 10:31:55;;;;;;;;;;;;;;;20.28;49.94;100783.16;4996962;28;4217;-64
2022/12/28 10:34:21;;;;;;;;;;;;;;;20.29;49.68;100778.88;5022251;28;4118;-65
2022/12/28 10:36:48;;;;;;;;;;;;;;;20.29;49.70;100778.88;5020842;28;4230;-63
2022/12/28 10:39:16;;;;;;;;;;;;;;;20.30;49.79;100771.75;5023167;28;4262;-65
2022/12/28 10:41:44;;;;;;;;;;;;;;;20.33;50.04;100761.09;5020216;28;4197;-64
2022/12/28 10:44:18;;;;;;;;;;;;;;;20.32;50.10;100760.34;5005923;28;4143;-65
2022/12/28 10:47:05;;;;;;;;;;;;;;;20.34;50.15;100760.44;5021730;28;4238;-64
2022/12/28 10:49:33;;;;;;;;;;;;;;;20.34;50.11;100757.56;5022494;28;4089;-65
2022/12/28 10:52:00;;;;;;;;;;;;;;;20.37;50.16;100747.63;5016600;28;4217;-60
2022/12/28 10:54:27;;;;;;;;;;;;;;;20.47;50.03;100750.22;5019234;28;4222;-61
2022/12/28 10:56:56;;;;;;;;;;;;;;;20.42;50.35;100739.94;4995303;28;4127;-60
2022/12/28 10:59:26;;;;;;;;;;;;;;;20.46;50.27;100752.34;5014589;28;4231;-62
2022/12/28 11:01:53;;;;;;;;;;;;;;;20.44;50.28;100743.63;5016550;28;4198;-61
2022/12/28 11:04:20;;;;;;;;;;;;;;;20.44;50.36;100748.66;5014136;28;4130;-63
2022/12/28 11:06:53;;;;;;;;;;;;;;;20.28;50.55;100742.91;5001737;28;4097;-64
2022/12/28 11:09:23;;;;;;;;;;;;;;;20.27;50.50;100745.03;5013481;28;4240;-63
2022/12/28 11:11:51;;;;;;;;;;;;;;;20.31;50.21;100744.47;5023957;28;5258;-63
2022/12/28 11:14:35;;;;;;;;;;;;;;;20.33;50.26;100730.19;5024390;28;4157;-64
2022/12/28 11:17:18;;;;;;;;;;;;;;;20.33;50.47;100730.19;4998375;28;6397;-64
2022/12/28 11:19:44;;;;;;;;;;;;;;;20.34;50.52;100734.56;5005386;28;5251;-64
2022/12/28 11:22:11;;;;;;;;;;;;;;;20.34;50.36;100728.81;5000563;28;4213;-64
2022/12/28 11:24:38;;;;;;;;;;;;;;;20.34;50.44;100728.81;4997983;28;4189;-64
2022/12/28 11:27:05;;;;;;;;;;;;;;;20.34;50.41;100722.28;5025550;28;5461;-63
2022/12/28 11:29:31;;;;;;;;;;;;;;;20.34;50.48;100717.31;5010035;28;4186;-64
2022/12/28 11:32:02;;;;;;;;;;;;;;;20.33;50.46;100715.81;5026136;28;4121;-64
2022/12/28 11:34:28;;;;;;;;;;;;;;;20.34;50.60;100723.06;5026224;28;4225;-64
2022/12/28 11:36:54;;;;;;;;;;;;;;;20.36;50.49;100714.50;5025888;28;4202;-64
2022/12/28 11:39:24;;;;;;;;;;;;;;;20.35;50.40;100718.78;5008915;28;5142;-64
2022/12/28 11:41:53;;;;;;;;;;;;;;;20.36;50.62;100711.63;5027527;28;4092;-64
2022/12/28 11:44:39;;;;;;;;;;;;;;;20.37;50.56;100721.75;5027003;28;4246;-64
2022/12/28 11:47:31;;;;;;;;;;;;;;;20.35;50.60;100721.66;5027416;28;4180;-64
2022/12/28 11:50:16;;;;;;;;;;;;;;;20.36;50.54;100711.63;5020022;28;4018;-64
2022/12/28 11:52:44;;;;;;;;;;;;;;;20.36;50.79;100708.75;5024535;28;4482;-63
2022/12/28 11:55:29;;;;;;;;;;;;;;;20.34;50.76;100720.19;5027094;28;4113;-63
2022/12/28 11:57:55;;;;;;;;;;;;;;;20.34;50.74;100702.16;5023031;28;5383;-64
2022/12/28 12:00:22;;;;;;;;;;;;;;;20.35;50.67;100707.28;5020716;28;4145;-64
2022/12/28 12:02:52;;;;;;;;;;;;;;;20.34;50.67;100694.31;5023953;28;5459;-64
2022/12/28 12:05:36;;;;;;;;;;;;;;;20.36;50.70;100688.63;5000219;28;5232;-64
2022/12/28 12:08:08;;;;;;;;;;;;;;;20.36;50.74;100697.25;5019396;28;4270;-64
2022/12/28 12:10:35;;;;;;;;;;;;;;;20.38;50.77;100691.59;5025848;28;4164;-65
2022/12/28 12:13:12;;;;;;;;;;;;;;;20.40;50.68;100700.31;5009217;28;5389;-65
2022/12/28 12:15:39;;;;;;;;;;;;;;;20.41;50.98;100687.41;4996653;28;3977;-65
2022/12/28 12:18:06;;;;;;;;;;;;;;;20.44;51.07;100686.09;5007843;28;4225;-65
2022/12/28 12:20:50;;;;;;;;;;;;;;;20.42;51.05;100677.38;5025196;28;3997;-65
2022/12/28 12:23:34;;;;;;;;;;;;;;;20.41;50.78;100684.53;5024926;28;6223;-65
2022/12/28 12:26:12;;;;;;;;;;;;;;;20.41;50.85;100678.03;5024410;28;4158;-65
2022/12/28 12:28:46;;;;;;;;;;;;;;;20.40;50.93;100674.41;5000207;28;4165;-65
2022/12/28 12:31:14;;;;;;;;;;;;;;;20.39;50.81;100672.94;5020016;28;4117;-65
2022/12/28 12:33:41;;;;;;;;;;;;;;;20.39;50.95;100667.19;5022752;28;4134;-65
2022/12/28 12:36:23;;;;;;;;;;;;;;;20.38;50.93;100665.69;5008083;28;4152;-65
2022/12/28 12:39:09;;;;;;;;;;;;;;;20.38;50.98;100662.81;5024236;28;4183;-65
2022/12/28 12:41:41;;;;;;;;;;;;;;;20.38;51.08;100659.94;5008514;28;6233;-65
2022/12/28 12:44:18;;;;;;;;;;;;;;;20.39;51.12;100666.47;4993077;28;5427;-65
2022/12/28 12:46:44;;;;;;;;;;;;;;;20.40;50.99;100659.31;5006280;28;4215;-64
2022/12/28 12:49:26;;;;;;;;;;;;;;;20.40;50.94;100657.16;5006291;28;4170;-64
2022/12/28 12:51:52;;;;;;;;;;;;;;;20.42;50.89;100648.63;5007180;28;4160;-64
2022/12/28 12:54:31;;;;;;;;;;;;;;;20.41;50.85;100655.78;5022138;28;4118;-64
2022/12/28 12:57:00;;;;;;;;;;;;;;;20.44;51.16;100650.84;4994626;28;4088;-64
2022/12/28 12:59:42;;;;;;;;;;;;;;;20.44;50.81;100654.47;4998239;28;3952;-64
2022/12/28 13:02:18;;;;;;;;;;;;;;;20.45;50.92;100652.31;5022086;28;4218;-64
2022/12/28 13:04:48;;;;;;;;;;;;;;;20.45;51.17;100650.19;5001039;28;5406;-64
2022/12/28 13:07:23;;;;;;;;;;;;;;;20.45;50.92;100647.31;4998366;28;5178;-65
2022/12/28 13:09:50;;;;;;;;;;;;;;;20.44;50.95;100648.72;4996863;28;3988;-64
2022/12/28 13:12:17;;;;;;;;;;;;;;;20.44;51.01;100645.84;5008721;28;4137;-64
2022/12/28 13:14:44;;;;;;;;;;;;;;;20.44;50.95;100651.59;5021061;28;5538;-64
2022/12/28 13:17:13;;;;;;;;;;;;;;;20.44;51.01;100637.22;4997441;28;5206;-64
2022/12/28 13:19:40;;;;;;;;;;;;;;;20.44;51.17;100637.22;5001372;28;5242;-64
2022/12/28 13:22:13;;;;;;;;;;;;;;;20.46;50.91;100643.06;5021251;28;5155;-64
2022/12/28 13:24:41;;;;;;;;;;;;;;;20.47;51.01;100638.03;4995642;28;5457;-64
2022/12/28 13:27:15;;;;;;;;;;;;;;;20.48;50.96;100646.00;5006654;28;5198;-64
2022/12/28 13:29:41;;;;;;;;;;;;;;;20.49;50.92;100630.22;4995383;28;5228;-64
2022/12/28 13:32:28;;;;;;;;;;;;;;;20.48;51.18;100633.78;4999529;28;4566;-64
2022/12/28 13:35:13;;;;;;;;;;;;;;;20.48;51.04;100633.78;5021004;28;4235;-64
2022/12/28 13:37:40;;;;;;;;;;;;;;;20.53;50.92;100634.69;4997871;28;4246;-64
2022/12/28 13:40:07;;;;;;;;;;;;;;;20.51;51.27;100638.94;5017105;28;5132;-64
2022/12/28 13:42:55;;;;;;;;;;;;;;;20.50;51.28;100642.47;5015830;28;4180;-64